Time;durP1;ratioP1;P1;durP2;ratioP2;P2;SDS_P1;SDS_P2;PMS_P1;PMS_P2;Temp;Humidity;BMP_temperature;BMP_pressure;BME280_temperature;BME280_humidity;BME280_pressure;Samples;Min_cycle;Max_cycle;Signal;HPM_P1;HPM_P2
2022/10/11 00:02:05;;;;;;;17.60;3.05;;;;;;;11.01;100.00;101268.78;4986015;28;20037;-76
2022/10/11 00:04:30;;;;;;;8.70;2.10;;;;;;;11.01;100.00;101266.00;5007145;28;20029;-75
2022/10/11 00:06:56;;;;;;;8.02;1.80;;;;;;;11.00;100.00;101272.66;5040290;28;20506;-76
2022/10/11 00:09:21;;;;;;;10.75;2.25;;;;;;;10.99;100.00;101263.50;5023534;28;20032;-75
2022/10/11 00:11:47;;;;;;;13.45;2.05;;;;;;;10.99;100.00;101269.06;5008011;28;20026;-75
2022/10/11 00:14:12;;;;;;;18.48;2.70;;;;;;;10.92;100.00;101265.72;5013363;28;20033;-76
2022/10/11 00:16:39;;;;;;;15.68;2.08;;;;;;;10.90;100.00;101263.22;5028102;28;20048;-75
2022/10/11 00:19:05;;;;;;;9.00;2.13;;;;;;;10.88;100.00;101257.09;5025117;28;20037;-75
2022/10/11 00:21:30;;;;;;;11.88;2.00;;;;;;;10.85;100.00;101260.44;5018214;28;20037;-75
2022/10/11 00:23:56;;;;;;;10.38;2.08;;;;;;;10.84;100.00;101253.22;5022035;28;20482;-75
2022/10/11 00:26:21;;;;;;;13.88;2.47;;;;;;;10.80;100.00;101252.09;5024504;28;20030;-75
2022/10/11 00:28:49;;;;;;;12.15;1.85;;;;;;;10.75;100.00;101257.66;5025010;28;20018;-76
2022/10/11 00:31:15;;;;;;;12.55;2.33;;;;;;;10.75;100.00;101257.66;5005480;28;20124;-75
2022/10/11 00:33:40;;;;;;;11.88;1.80;;;;;;;10.78;100.00;101259.91;5010852;28;20030;-75
2022/10/11 00:36:07;;;;;;;12.38;2.15;;;;;;;10.72;100.00;101260.97;4989932;28;20029;-76
2022/10/11 00:38:32;;;;;;;19.23;2.60;;;;;;;10.71;100.00;101265.72;4982233;28;20548;-76
2022/10/11 00:40:59;;;;;;;10.18;1.85;;;;;;;10.70;100.00;101263.22;5026212;28;20025;-75
2022/10/11 00:43:26;;;;;;;9.20;1.77;;;;;;;10.67;100.00;101260.97;5031159;28;20213;-76
2022/10/11 00:46:04;;;;;;;12.38;2.25;;;;;;;10.68;100.00;101271.00;5014953;28;20030;-76
2022/10/11 00:48:48;;;;;;;13.45;2.60;;;;;;;10.63;100.00;101266.25;5014897;28;20026;-76
2022/10/11 00:51:37;;;;;;;12.45;2.03;;;;;;;10.59;100.00;101264.31;5033301;28;20028;-75
2022/10/11 00:54:03;;;;;;;14.80;2.03;;;;;;;10.59;100.00;101265.16;5047041;28;20060;-76
2022/10/11 00:56:33;;;;;;;12.40;2.22;;;;;;;10.54;100.00;101264.31;5008291;28;20108;-75
2022/10/11 00:58:59;;;;;;;14.52;1.73;;;;;;;10.60;100.00;101268.75;5040971;28;20029;-76
2022/10/11 01:01:25;;;;;;;13.60;2.08;;;;;;;10.56;100.00;101275.97;5008684;28;20058;-75
2022/10/11 01:03:50;;;;;;;9.45;2.03;;;;;;;10.56;100.00;101273.19;4998108;28;20034;-76
2022/10/11 01:06:16;;;;;;;14.43;2.55;;;;;;;10.55;100.00;101277.09;4992135;28;20041;-75
2022/10/11 01:08:41;;;;;;;8.75;2.10;;;;;;;10.53;100.00;101280.16;5044043;28;20033;-75
2022/10/11 01:11:12;;;;;;;13.32;2.22;;;;;;;10.45;100.00;101275.97;5016386;28;20041;-75
2022/10/11 01:13:55;;;;;;;10.18;1.60;;;;;;;10.44;100.00;101276.22;5014402;28;20500;-76
2022/10/11 01:16:30;;;;;;;12.63;1.83;;;;;;;10.41;100.00;101274.00;5010641;28;20506;-75
2022/10/11 01:18:56;;;;;;;13.07;2.22;;;;;;;10.41;100.00;101272.06;4989979;28;20033;-75
2022/10/11 01:21:46;;;;;;;8.80;1.50;;;;;;;10.39;100.00;101265.97;5017805;28;20032;-75
2022/10/11 01:24:30;;;;;;;9.00;2.00;;;;;;;10.44;100.00;101270.66;5012604;28;20051;-75
2022/10/11 01:27:28;;;;;;;15.20;2.08;;;;;;;10.41;100.00;101260.94;5039083;28;20031;-75
2022/10/11 01:30:17;;;;;;;14.13;2.47;;;;;;;10.32;100.00;101265.38;5049672;28;20113;-76
2022/10/11 01:33:10;;;;;;;11.55;1.70;;;;;;;10.37;100.00;101265.41;5009386;28;20065;-75
2022/10/11 01:35:39;;;;;;;;;;;;;;;10.30;100.00;101256.47;5025234;28;20030;-75
2022/10/11 01:38:11;;;;;;;14.50;2.10;;;;;;;10.18;100.00;101256.69;5052061;28;20367;-76
2022/10/11 01:40:40;;;;;;;7.65;1.98;;;;;;;10.12;100.00;101259.75;5045598;28;20092;-76
2022/10/11 01:43:06;;;;;;;18.25;2.03;;;;;;;10.06;100.00;101251.41;5022477;28;20032;-76
2022/10/11 01:45:32;;;;;;;9.85;1.70;;;;;;;10.02;100.00;101260.53;4996708;28;20032;-75
2022/10/11 01:48:05;;;;;;;13.13;2.10;;;;;;;9.98;100.00;101264.97;5027464;28;20063;-76
2022/10/11 01:50:37;;;;;;;7.88;2.35;;;;;;;9.95;100.00;101260.78;5010963;28;20109;-76
2022/10/11 01:53:41;;;;;;;11.43;1.73;;;;;;;9.95;100.00;101262.75;5039266;28;20048;-75
2022/10/11 01:56:29;;;;;;;14.98;1.80;;;;;;;9.93;100.00;101270.50;5028520;28;20049;-76
2022/10/11 01:59:20;;;;;;;12.48;2.50;;;;;;;9.90;100.00;101269.09;5016921;28;20550;-76
2022/10/11 02:02:04;;;;;;;14.73;2.20;;;;;;;9.84;100.00;101264.63;5016236;28;20029;-75
2022/10/11 02:04:34;;;;;;;10.65;2.00;;;;;;;9.88;100.00;101265.75;5025443;28;20063;-75
2022/10/11 02:07:07;;;;;;;10.60;2.40;;;;;;;9.92;100.00;101266.88;5011483;28;20049;-75
2022/10/11 02:09:47;;;;;;;8.77;1.90;;;;;;;9.86;100.00;101256.84;5024064;28;20036;-75
2022/10/11 02:12:16;;;;;;;13.32;2.33;;;;;;;9.82;100.00;101264.06;5002128;28;20437;-76
2022/10/11 02:14:43;;;;;;;10.30;2.53;;;;;;;9.82;100.00;101258.50;5007322;28;20080;-75
2022/10/11 02:17:17;;;;;;;11.93;1.95;;;;;;;9.82;100.00;101256.56;4988154;28;20029;-75
2022/10/11 02:19:44;;;;;;;10.45;2.58;;;;;;;9.76;100.00;101251.28;5014272;28;20025;-76
2022/10/11 02:22:25;;;;;;;16.17;2.70;;;;;;;9.71;100.00;101254.84;4989951;28;20112;-75
2022/10/11 02:24:52;;;;;;;10.18;1.80;;;;;;;9.61;100.00;101247.34;4993177;28;20029;-75
2022/10/11 02:27:19;;;;;;;11.90;2.33;;;;;;;9.63;100.00;101255.38;5029926;28;20032;-76
2022/10/11 02:29:44;;;;;;;16.73;2.88;;;;;;;9.63;100.00;101253.41;5000129;28;20029;-75
2022/10/11 02:32:10;;;;;;;12.88;2.80;;;;;;;9.62;100.00;101246.22;5014786;28;20042;-75
2022/10/11 02:34:38;;;;;;;13.55;2.15;;;;;;;9.60;100.00;101256.75;5000172;28;20052;-76
2022/10/11 02:37:28;;;;;;;7.68;2.47;;;;;;;9.63;100.00;101255.38;5023993;28;20033;-76
2022/10/11 02:39:57;;;;;;;14.95;2.50;;;;;;;9.68;100.00;101255.41;5023000;28;20038;-75
2022/10/11 02:42:29;;;;;;;10.93;2.50;;;;;;;9.69;100.00;101262.59;5012675;28;20525;-75
2022/10/11 02:45:00;;;;;;;13.27;2.80;;;;;;;9.70;100.00;101260.69;5026636;28;20054;-75
2022/10/11 02:47:27;;;;;;;12.63;2.50;;;;;;;9.75;100.00;101253.22;4996380;28;20029;-76
2022/10/11 02:49:52;;;;;;;9.38;2.00;;;;;;;9.75;100.00;101261.53;5032833;28;20443;-76
2022/10/11 02:52:18;;;;;;;9.32;2.97;;;;;;;9.72;100.00;101258.47;5030219;28;20025;-75
2022/10/11 02:54:43;;;;;;;13.25;2.55;;;;;;;9.71;100.00;101256.81;5002164;28;20029;-75
2022/10/11 02:57:09;;;;;;;12.18;2.45;;;;;;;9.71;100.00;101251.25;5028092;28;20040;-76
2022/10/11 02:59:34;;;;;;;11.25;2.58;;;;;;;9.73;100.00;101260.97;5032336;28;20025;-76
2022/10/11 03:02:00;;;;;;;12.50;2.25;;;;;;;9.69;100.00;101253.44;5016058;28;20022;-76
2022/10/11 03:04:25;;;;;;;15.07;2.65;;;;;;;9.62;100.00;101257.31;5037952;28;20036;-75
2022/10/11 03:06:51;;;;;;;14.95;2.35;;;;;;;9.61;100.00;101257.56;5045131;28;20500;-76
2022/10/11 03:09:16;;;;;;;11.60;2.30;;;;;;;9.61;100.00;101260.34;5050488;28;20049;-76
2022/10/11 03:11:42;;;;;;;10.90;2.35;;;;;;;9.66;100.00;101265.91;5036793;28;20031;-75
2022/10/11 03:14:07;;;;;;;8.40;2.17;;;;;;;9.58;100.00;101258.97;4996651;28;20048;-76
2022/10/11 03:16:33;;;;;;;13.65;2.33;;;;;;;9.54;100.00;101266.13;5021805;28;20153;-76
2022/10/11 03:18:58;;;;;;;13.20;2.67;;;;;;;9.47;100.00;101261.94;4998321;28;20033;-75
2022/10/11 03:21:24;;;;;;;9.55;2.58;;;;;;;9.50;100.00;101255.84;4999368;28;20110;-76
2022/10/11 03:23:49;;;;;;;12.35;2.40;;;;;;;9.40;100.00;101259.41;5034639;28;20056;-75
2022/10/11 03:26:15;;;;;;;8.52;2.13;;;;;;;9.47;100.00;101264.69;5029512;28;20034;-76
2022/10/11 03:28:40;;;;;;;14.90;2.70;;;;;;;9.48;100.00;101264.44;5004307;28;20548;-75
2022/10/11 03:31:06;;;;;;;14.00;1.95;;;;;;;9.44;100.00;101260.53;5026119;28;20054;-75
2022/10/11 03:33:31;;;;;;;10.80;2.28;;;;;;;9.35;100.00;101254.66;5020485;28;20029;-76
2022/10/11 03:35:57;;;;;;;10.50;2.15;;;;;;;9.42;100.00;101254.44;4993264;28;20030;-76
2022/10/11 03:38:22;;;;;;;12.07;2.15;;;;;;;9.37;100.00;101258.00;5002308;28;20029;-76
2022/10/11 03:40:48;;;;;;;9.27;2.00;;;;;;;9.48;100.00;101253.34;4999239;28;20035;-76
2022/10/11 03:43:13;;;;;;;8.88;1.75;;;;;;;9.46;100.00;101254.72;4998385;28;20077;-77
2022/10/11 03:45:41;;;;;;;5.82;1.70;;;;;;;9.49;100.00;101254.19;5025126;28;20037;-75
2022/10/11 03:48:06;;;;;;;8.80;1.90;;;;;;;9.48;100.00;101247.81;5005904;28;20029;-76
2022/10/11 03:50:32;;;;;;;8.57;2.38;;;;;;;9.49;100.00;101252.25;5011693;28;20032;-75
2022/10/11 03:52:57;;;;;;;9.13;2.30;;;;;;;9.49;100.00;101255.00;4999024;28;20042;-76
2022/10/11 03:55:23;;;;;;;9.90;1.95;;;;;;;9.49;100.00;101263.34;5009202;28;20033;-76
2022/10/11 03:57:49;;;;;;;7.95;1.70;;;;;;;9.51;100.00;101272.22;5035371;28;20512;-75
2022/10/11 04:00:14;;;;;;;7.88;1.80;;;;;;;9.45;100.00;101262.22;5028118;28;20041;-75
2022/10/11 04:02:40;;;;;;;5.80;1.52;;;;;;;9.44;100.00;101263.28;5002521;28;20026;-75
2022/10/11 04:05:05;;;;;;;10.88;1.85;;;;;;;9.44;100.00;101266.06;4998805;28;20386;-75
2022/10/11 04:07:31;;;;;;;10.88;1.80;;;;;;;9.47;100.00;101271.09;5015265;28;20026;-75
2022/10/11 04:09:57;;;;;;;5.75;1.45;;;;;;;9.42;100.00;101271.06;5028607;28;20040;-75
2022/10/11 04:12:23;;;;;;;7.55;1.60;;;;;;;9.44;100.00;101273.56;5002993;28;20030;-75
2022/10/11 04:14:48;;;;;;;5.95;1.52;;;;;;;9.39;100.00;101274.38;4980709;28;20033;-76
2022/10/11 04:17:14;;;;;;;7.38;1.73;;;;;;;9.41;100.00;101274.94;5047842;28;20140;-76
2022/10/11 04:19:39;;;;;;;6.80;1.63;;;;;;;9.36;100.00;101283.22;5005748;28;20378;-76
2022/10/11 04:22:05;;;;;;;6.40;1.75;;;;;;;9.35;100.00;101278.78;4987718;28;20032;-76
2022/10/11 04:24:31;;;;;;;6.35;1.60;;;;;;;9.31;100.00;101280.44;5026529;28;20037;-75
2022/10/11 04:26:56;;;;;;;4.50;1.73;;;;;;;9.27;100.00;101280.09;5031841;28;20382;-75
2022/10/11 04:29:22;;;;;;;13.05;2.40;;;;;;;9.09;100.00;101281.38;5009560;28;20030;-76
2022/10/11 04:31:47;;;;;;;6.88;1.55;;;;;;;9.13;100.00;101281.66;5033514;28;20057;-75
2022/10/11 04:34:13;;;;;;;8.90;2.03;;;;;;;9.12;100.00;101278.06;5026721;28;20040;-75
2022/10/11 04:36:38;;;;;;;6.97;1.45;;;;;;;9.11;100.00;101284.72;5005241;28;20038;-75
2022/10/11 04:39:05;;;;;;;4.68;1.40;;;;;;;9.14;100.00;101278.66;5027210;28;20025;-75
2022/10/11 04:41:30;;;;;;;9.05;2.22;;;;;;;9.13;100.00;101278.91;5004860;28;20026;-75
2022/10/11 04:43:56;;;;;;;7.38;1.30;;;;;;;9.10;100.00;101285.81;5047195;28;20036;-75
2022/10/11 04:46:21;;;;;;;9.30;1.50;;;;;;;9.09;100.00;101286.09;5008780;28;20026;-75
2022/10/11 04:48:47;;;;;;;8.18;1.73;;;;;;;9.10;100.00;101288.56;5002110;28;20545;-75
2022/10/11 04:51:12;;;;;;;7.88;1.73;;;;;;;9.08;100.00;101296.34;5020520;28;20041;-76
2022/10/11 04:53:38;;;;;;;7.65;1.92;;;;;;;9.07;100.00;101294.66;5047202;28;20041;-75
2022/10/11 04:56:06;;;;;;;9.57;1.85;;;;;;;9.08;100.00;101296.34;5046047;28;20040;-76
2022/10/11 04:58:32;;;;;;;5.75;1.42;;;;;;;9.08;100.00;101301.03;5048774;28;20033;-75
2022/10/11 05:00:58;;;;;;;7.78;1.80;;;;;;;9.09;100.00;101297.16;5014416;28;20018;-76
2022/10/11 05:03:24;;;;;;;5.68;1.40;;;;;;;9.08;100.00;101304.66;5025770;28;20017;-76
2022/10/11 05:05:49;;;;;;;5.10;1.80;;;;;;;9.07;100.00;101302.97;5024263;28;20057;-76
2022/10/11 05:08:15;;;;;;;5.50;1.42;;;;;;;9.06;100.00;101303.25;5012035;28;20037;-76
2022/10/11 05:10:40;;;;;;;5.13;1.52;;;;;;;8.99;100.00;101311.75;5017852;28;20036;-76
2022/10/11 05:13:06;;;;;;;7.20;1.88;;;;;;;8.98;100.00;101301.78;5003640;28;20029;-76
2022/10/11 05:15:31;;;;;;;5.82;1.38;;;;;;;9.02;100.00;101308.44;5016608;28;20048;-76
2022/10/11 05:17:57;;;;;;;4.22;1.42;;;;;;;8.98;100.00;101306.50;5041122;28;20051;-75
2022/10/11 05:20:22;;;;;;;9.45;1.48;;;;;;;8.93;100.00;101312.81;5017230;28;20501;-76
2022/10/11 05:22:48;;;;;;;5.32;1.38;;;;;;;8.88;100.00;101316.38;5028634;28;20072;-75
2022/10/11 05:25:13;;;;;;;7.30;1.80;;;;;;;8.85;100.00;101305.81;5011383;28;20030;-76
2022/10/11 05:27:39;;;;;;;6.88;1.52;;;;;;;8.80;100.00;101311.31;5050441;28;20060;-76
2022/10/11 05:30:05;;;;;;;5.82;1.23;;;;;;;8.79;100.00;101317.13;5018428;28;20084;-75
2022/10/11 05:32:30;;;;;;;5.60;1.27;;;;;;;8.75;100.00;101318.72;5036542;28;20163;-75
2022/10/11 05:34:56;;;;;;;5.68;1.88;;;;;;;8.71;100.00;101321.19;5018003;28;20064;-76
2022/10/11 05:37:21;;;;;;;8.82;2.15;;;;;;;8.69;100.00;101323.38;5034404;28;20025;-76
2022/10/11 05:39:47;;;;;;;7.38;1.58;;;;;;;8.67;100.00;101326.44;5018818;28;20034;-76
2022/10/11 05:42:12;;;;;;;4.07;1.45;;;;;;;8.68;100.00;101322.56;5028870;28;20025;-76
2022/10/11 05:44:38;;;;;;;8.13;1.52;;;;;;;8.62;100.00;101323.59;5021728;28;20045;-76
2022/10/11 05:47:03;;;;;;;4.90;1.73;;;;;;;8.59;100.00;101317.75;5017396;28;20534;-75
2022/10/11 05:49:29;;;;;;;4.30;1.38;;;;;;;8.57;100.00;101315.25;5013235;28;20382;-75
2022/10/11 05:51:54;;;;;;;7.60;1.73;;;;;;;8.57;100.00;101320.78;5012194;28;20469;-75
2022/10/11 05:54:20;;;;;;;7.57;1.80;;;;;;;8.52;100.00;101326.25;5023955;28;20478;-75
2022/10/11 05:56:46;;;;;;;8.18;1.83;;;;;;;8.50;100.00;101328.47;5017265;28;20108;-75
2022/10/11 05:59:11;;;;;;;4.82;1.83;;;;;;;8.51;100.00;101321.81;4996827;28;20033;-76
2022/10/11 06:01:37;;;;;;;5.03;1.60;;;;;;;8.49;100.00;101324.00;4988029;28;20029;-75
2022/10/11 06:04:03;;;;;;;6.88;1.30;;;;;;;8.47;100.00;101323.47;5050482;28;20036;-75
2022/10/11 06:06:29;;;;;;;6.20;1.67;;;;;;;8.44;100.00;101327.59;4995832;28;20183;-75
2022/10/11 06:08:54;;;;;;;4.90;1.50;;;;;;;8.45;100.00;101328.41;5027152;28;20037;-75
2022/10/11 06:11:22;;;;;;;5.50;1.35;;;;;;;8.48;100.00;101334.25;5029813;28;20033;-75
2022/10/11 06:13:47;;;;;;;6.10;1.65;;;;;;;8.48;100.00;101337.03;5026415;28;20026;-76
2022/10/11 06:16:13;;;;;;;5.75;1.77;;;;;;;8.49;100.00;101337.84;5007327;28;20029;-75
2022/10/11 06:18:39;;;;;;;6.35;1.60;;;;;;;8.52;100.00;101333.72;5049983;28;20076;-73
2022/10/11 06:21:04;;;;;;;5.97;1.58;;;;;;;8.54;100.00;101342.63;5036761;28;20025;-69
2022/10/11 06:23:30;;;;;;;6.80;2.00;;;;;;;8.56;100.00;101343.19;5000733;28;20052;-69
2022/10/11 06:25:59;;;;;;;6.65;1.52;;;;;;;8.59;100.00;101339.91;5010474;28;20017;-69
2022/10/11 06:28:26;;;;;;;9.50;1.67;;;;;;;8.66;100.00;101341.38;5022980;28;20059;-70
2022/10/11 06:30:51;;;;;;;7.32;1.40;;;;;;;8.67;100.00;101342.22;5000495;28;20045;-75
2022/10/11 06:33:17;;;;;;;6.57;1.58;;;;;;;8.70;100.00;101359.13;5016838;28;20470;-75
2022/10/11 06:35:43;;;;;;;9.25;1.58;;;;;;;8.72;100.00;101347.81;5049099;28;20052;-75
2022/10/11 06:38:08;;;;;;;5.32;1.70;;;;;;;8.75;100.00;101357.50;5049592;28;20481;-75
2022/10/11 06:40:34;;;;;;;5.15;1.50;;;;;;;8.75;100.00;101352.81;5037298;28;20025;-75
2022/10/11 06:42:59;;;;;;;6.82;1.65;;;;;;;8.78;100.00;101357.00;5027753;28;20026;-75
2022/10/11 06:45:25;;;;;;;5.38;1.58;;;;;;;8.79;100.00;101361.44;5043781;28;20033;-76
2022/10/11 06:47:50;;;;;;;7.82;1.33;;;;;;;8.79;100.00;101359.50;5026396;28;20029;-75
2022/10/11 06:50:16;;;;;;;8.32;1.63;;;;;;;8.79;100.00;101358.66;5049593;28;20025;-75
2022/10/11 06:52:41;;;;;;;3.08;1.40;;;;;;;8.80;100.00;101361.16;5049499;28;20119;-75
2022/10/11 06:55:07;;;;;;;3.55;1.10;;;;;;;8.81;100.00;101350.94;5027122;28;20397;-75
2022/10/11 06:57:32;;;;;;;9.95;1.95;;;;;;;8.87;100.00;101364.56;5002476;28;20026;-75
2022/10/11 06:59:58;;;;;;;7.03;1.73;;;;;;;8.89;100.00;101358.78;5044703;28;20025;-75
2022/10/11 07:02:23;;;;;;;4.53;1.33;;;;;;;8.91;100.00;101364.88;5039611;28;20068;-75
2022/10/11 07:04:49;;;;;;;7.35;1.67;;;;;;;8.92;100.00;101361.03;5031532;28;20044;-75
2022/10/11 07:07:14;;;;;;;7.78;1.92;;;;;;;8.98;100.00;101361.91;5048632;28;20049;-75
2022/10/11 07:09:40;;;;;;;7.68;1.35;;;;;;;9.04;100.00;101353.38;5043931;28;20393;-75
2022/10/11 07:12:06;;;;;;;7.75;1.40;;;;;;;9.09;100.00;101358.97;5016070;28;20588;-75
2022/10/11 07:14:31;;;;;;;7.03;1.73;;;;;;;9.12;100.00;101350.13;5025096;28;20060;-75
2022/10/11 07:16:57;;;;;;;11.30;1.70;;;;;;;9.17;100.00;101350.16;5046791;28;20032;-75
2022/10/11 07:19:22;;;;;;;6.57;1.67;;;;;;;9.24;100.00;101362.97;5038751;28;20025;-75
2022/10/11 07:21:48;;;;;;;6.35;1.80;;;;;;;9.28;100.00;101367.72;5033775;28;20025;-76
2022/10/11 07:24:13;;;;;;;10.93;2.58;;;;;;;9.25;100.00;101371.03;5024110;28;20461;-75
2022/10/11 07:26:39;;;;;;;7.10;1.60;;;;;;;9.28;100.00;101369.66;5006704;28;20033;-75
2022/10/11 07:29:06;;;;;;;10.15;1.80;;;;;;;9.34;100.00;101371.38;5015598;28;20454;-76
2022/10/11 07:31:31;;;;;;;7.13;1.50;;;;;;;9.38;100.00;101370.56;5000212;28;20036;-77
2022/10/11 07:33:57;;;;;;;7.00;1.63;;;;;;;9.45;100.00;101373.13;4986330;28;20057;-76
2022/10/11 07:36:22;;;;;;;7.53;1.70;;;;;;;9.50;100.00;101375.94;5021464;28;20111;-76
2022/10/11 07:38:49;;;;;;;6.97;1.73;;;;;;;9.55;100.00;101369.56;5025015;28;20037;-76
2022/10/11 07:41:15;;;;;;;6.63;1.50;;;;;;;9.58;100.00;101369.03;5022372;28;20038;-76
2022/10/11 07:43:42;;;;;;;9.35;2.00;;;;;;;9.62;100.00;101382.13;5040852;28;20055;-76
2022/10/11 07:46:08;;;;;;;7.25;2.35;;;;;;;9.63;100.00;101383.78;5027179;28;20064;-77
2022/10/11 07:48:34;;;;;;;12.00;2.30;;;;;;;9.57;100.00;101384.00;4988483;28;20030;-76
2022/10/11 07:51:13;;;;;;;12.18;2.20;;;;;;;9.58;100.00;101392.09;5008317;28;20209;-76
2022/10/11 07:53:42;;;;;;;11.85;2.50;;;;;;;9.60;100.00;101392.63;5032728;28;20076;-76
2022/10/11 07:56:08;;;;;;;10.95;2.55;;;;;;;9.62;100.00;101393.22;4999265;28;20033;-76
2022/10/11 07:58:33;;;;;;;8.82;2.15;;;;;;;9.70;100.00;101397.44;5027061;28;20064;-71
2022/10/11 08:00:59;;;;;;;10.05;2.03;;;;;;;9.81;100.00;101401.13;5049219;28;20034;-77
2022/10/11 08:03:25;;;;;;;8.68;1.83;;;;;;;9.89;100.00;101403.38;5005362;28;20059;-76
2022/10/11 08:05:51;;;;;;;8.75;2.53;;;;;;;9.89;100.00;101405.31;5020100;28;20054;-77
2022/10/11 08:08:17;;;;;;;10.57;2.05;;;;;;;9.91;100.00;101406.72;5054884;28;20107;-77
2022/10/11 08:10:43;;;;;;;13.18;2.15;;;;;;;10.01;100.00;101408.72;5054782;28;20477;-77
2022/10/11 08:13:08;;;;;;;10.55;2.33;;;;;;;10.05;100.00;101405.13;5011335;28;20049;-77
2022/10/11 08:15:34;;;;;;;8.25;1.65;;;;;;;10.24;100.00;101407.47;5036207;28;20029;-77
2022/10/11 08:18:00;;;;;;;11.25;2.67;;;;;;;10.29;100.00;101413.06;5031285;28;20390;-77
2022/10/11 08:20:25;;;;;;;10.52;2.33;;;;;;;10.42;100.00;101406.16;5025615;28;20025;-77
2022/10/11 08:22:50;;;;;;;10.18;2.30;;;;;;;10.59;100.00;101401.25;5047011;28;20056;-70
2022/10/11 08:25:16;;;;;;;12.60;2.28;;;;;;;10.71;100.00;101401.84;5045578;28;20064;-76
2022/10/11 08:27:42;;;;;;;9.95;2.35;;;;;;;10.86;100.00;101409.38;5030629;28;20064;-75
2022/10/11 08:30:08;;;;;;;9.57;1.80;;;;;;;11.04;100.00;101401.66;5034918;28;20029;-79
2022/10/11 08:32:34;;;;;;;9.77;2.10;;;;;;;11.22;100.00;101406.66;5022769;28;20044;-73
2022/10/11 08:34:59;;;;;;;9.73;2.10;;;;;;;11.41;100.00;101401.41;5053343;28;20436;-72
2022/10/11 08:37:25;;;;;;;10.77;1.98;;;;;;;11.61;100.00;101397.75;5047061;28;20029;-72
2022/10/11 08:39:50;;;;;;;17.98;3.00;;;;;;;11.74;100.00;101399.16;4993106;28;20026;-72
2022/10/11 08:42:37;;;;;;;12.13;2.33;;;;;;;11.85;100.00;101407.25;5047163;28;20051;-72
2022/10/11 08:45:06;;;;;;;13.05;2.15;;;;;;;12.05;100.00;101406.34;5044068;28;20044;-71
2022/10/11 08:47:36;;;;;;;8.90;2.20;;;;;;;12.19;100.00;101403.81;5042912;28;20033;-71
2022/10/11 08:50:03;;;;;;;11.23;2.10;;;;;;;12.35;100.00;101409.34;5012421;28;20044;-72
2022/10/11 08:52:52;;;;;;;12.38;2.15;;;;;;;12.49;100.00;101400.09;5041947;28;20697;-72
2022/10/11 08:55:20;;;;;;;10.90;2.42;;;;;;;12.62;100.00;101401.44;5026683;28;20040;-72
2022/10/11 08:57:50;;;;;;;10.18;2.58;;;;;;;12.77;99.78;101400.50;5057825;28;20067;-72
2022/10/11 09:00:16;;;;;;;9.20;1.75;;;;;;;12.93;98.22;101399.31;5007992;28;20453;-72
2022/10/11 09:02:46;;;;;;;13.00;2.35;;;;;;;13.04;96.30;101391.72;5003319;28;20064;-72
2022/10/11 09:05:14;;;;;;;9.55;2.05;;;;;;;13.21;98.24;101398.84;5018077;28;20037;-72
2022/10/11 09:08:09;;;;;;;8.77;2.60;;;;;;;13.35;97.76;101394.31;5022086;28;20025;-72
2022/10/11 09:10:44;;;;;;;11.43;1.92;;;;;;;13.51;96.50;101401.44;5039250;28;20045;-72
2022/10/11 09:13:32;;;;;;;9.55;2.60;;;;;;;13.59;94.05;101399.94;5031088;28;20456;-72
2022/10/11 09:16:20;;;;;;;11.02;2.33;;;;;;;13.76;95.86;101399.50;5040244;28;20486;-72
2022/10/11 09:19:02;;;;;;;8.20;2.47;;;;;;;13.97;95.11;101392.59;5044065;28;20033;-72
2022/10/11 09:21:57;;;;;;;9.63;2.22;;;;;;;14.12;93.54;101402.75;5031847;28;20030;-73
2022/10/11 09:24:26;;;;;;;8.07;1.80;;;;;;;14.22;91.88;101402.66;5011714;28;20523;-73
2022/10/11 09:27:00;;;;;;;7.15;2.08;;;;;;;14.25;89.68;101402.06;5052197;28;20108;-72
2022/10/11 09:29:47;;;;;;;7.85;1.98;;;;;;;14.38;89.96;101406.09;5021041;28;20091;-75
2022/10/11 09:32:14;;;;;;;11.27;2.20;;;;;;;14.47;87.86;101397.88;5016586;28;20040;-75
2022/10/11 09:34:40;;;;;;;10.10;1.95;;;;;;;14.56;87.49;101406.47;5001517;28;20042;-75
2022/10/11 09:37:10;;;;;;;9.50;2.00;;;;;;;14.63;85.67;101401.38;5014452;28;20677;-75
2022/10/11 09:39:37;;;;;;;11.32;2.35;;;;;;;14.73;86.39;101406.78;5011611;28;20541;-75
2022/10/11 09:42:07;;;;;;;7.00;1.83;;;;;;;14.83;85.95;101403.03;5011030;28;20025;-75
2022/10/11 09:44:40;;;;;;;11.30;2.38;;;;;;;14.89;83.36;101407.44;5010976;28;20045;-75
2022/10/11 09:47:06;;;;;;;12.80;2.28;;;;;;;14.94;82.60;101402.59;5029425;28;20082;-75
2022/10/11 09:49:43;;;;;;;7.43;1.90;;;;;;;15.09;83.63;101403.50;5007954;28;20094;-75
2022/10/11 09:52:17;;;;;;;9.43;1.70;;;;;;;15.26;83.30;101409.38;4998051;28;20022;-75
2022/10/11 09:54:47;;;;;;;8.90;1.95;;;;;;;15.42;83.10;101396.81;5003503;28;20113;-74
2022/10/11 09:57:36;;;;;;;9.65;1.65;;;;;;;15.64;82.52;101398.13;5014781;28;20039;-75
2022/10/11 10:00:06;;;;;;;12.43;2.35;;;;;;;15.71;82.85;101398.59;5025520;28;20037;-74
2022/10/11 10:02:47;;;;;;;12.77;2.55;;;;;;;15.72;80.77;101397.47;5019871;28;20068;-75
2022/10/11 10:05:20;;;;;;;8.85;2.00;;;;;;;15.83;79.10;101398.09;5016513;28;20033;-75
2022/10/11 10:08:07;;;;;;;9.15;2.00;;;;;;;16.02;81.03;101398.88;5043705;28;20532;-75
2022/10/11 10:10:40;;;;;;;10.57;2.33;;;;;;;16.06;77.92;101394.28;5025250;28;20029;-75
2022/10/11 10:13:22;;;;;;;6.95;1.67;;;;;;;16.22;78.33;101396.81;4998885;28;20029;-75
2022/10/11 10:15:49;;;;;;;6.60;2.05;;;;;;;16.44;78.98;101382.06;5012311;28;20533;-75
2022/10/11 10:18:33;;;;;;;7.85;1.83;;;;;;;16.62;79.67;101391.50;5010318;28;20026;-76
2022/10/11 10:20:59;;;;;;;9.48;2.20;;;;;;;16.79;77.00;101391.69;4989431;28;20053;-75
2022/10/11 10:23:29;;;;;;;12.27;2.08;;;;;;;16.82;74.26;101384.63;5036728;28;20029;-75
2022/10/11 10:26:17;;;;;;;9.23;1.70;;;;;;;16.87;74.81;101387.31;5000491;28;20026;-75
2022/10/11 10:29:09;;;;;;;9.32;1.48;;;;;;;16.97;74.46;101387.09;5003116;28;20168;-75
2022/10/11 10:31:48;;;;;;;8.15;1.85;;;;;;;17.05;73.55;101391.97;5025318;28;20060;-75
2022/10/11 10:34:28;;;;;;;6.90;1.83;;;;;;;17.16;72.24;101384.97;5026733;28;20037;-75
2022/10/11 10:37:01;;;;;;;8.32;1.95;;;;;;;17.30;73.21;101389.66;4989750;28;20527;-75
2022/10/11 10:39:32;;;;;;;7.45;2.03;;;;;;;17.37;74.44;101390.88;5001184;28;20037;-75
2022/10/11 10:42:00;;;;;;;10.90;2.67;;;;;;;17.35;72.46;101383.94;5018890;28;20399;-75
2022/10/11 10:44:26;;;;;;;8.75;1.92;;;;;;;17.57;73.45;101383.09;5003627;28;20045;-75
2022/10/11 10:47:00;;;;;;;8.90;1.90;;;;;;;17.67;73.87;101377.22;5016073;28;20078;-75
2022/10/11 10:49:45;;;;;;;5.82;1.98;;;;;;;17.73;71.92;101377.91;5034293;28;20041;-74
2022/10/11 10:52:26;;;;;;;9.73;2.42;;;;;;;17.73;69.09;101377.91;5011210;28;20595;-75
2022/10/11 10:54:55;;;;;;;12.48;2.63;;;;;;;17.79;68.99;101380.28;5032997;28;20120;-74
2022/10/11 10:57:24;;;;;;;9.77;2.17;;;;;;;17.88;69.18;101373.88;5011116;28;20053;-74
2022/10/11 11:00:18;;;;;;;7.65;1.90;;;;;;;17.94;68.55;101373.44;5015611;28;20088;-74
2022/10/11 11:02:47;;;;;;;6.85;1.70;;;;;;;18.05;68.95;101372.00;5015412;28;20065;-75
2022/10/11 11:05:17;;;;;;;7.93;2.03;;;;;;;18.10;68.78;101376.63;5035901;28;20065;-75
2022/10/11 11:07:46;;;;;;;8.55;2.50;;;;;;;18.01;67.65;101368.16;5015730;28;20025;-74
2022/10/11 11:10:17;;;;;;;8.20;2.15;;;;;;;17.94;66.54;101367.81;5017039;28;20084;-74
2022/10/11 11:12:52;;;;;;;8.48;2.42;;;;;;;17.92;67.08;101366.50;5014419;28;20029;-75
2022/10/11 11:15:19;;;;;;;8.82;2.15;;;;;;;17.87;66.84;101375.88;5029601;28;20026;-75
2022/10/11 11:18:03;;;;;;;7.47;2.10;;;;;;;17.87;68.53;101370.25;5018554;28;20074;-75
2022/10/11 11:21:00;;;;;;;9.75;2.25;;;;;;;17.75;69.31;101370.00;5020121;28;20029;-74
2022/10/11 11:23:35;;;;;;;7.13;2.40;;;;;;;17.64;68.50;101370.25;5006714;28;20061;-74
2022/10/11 11:26:25;;;;;;;8.90;2.33;;;;;;;17.74;69.01;101357.91;5015967;28;20069;-75
2022/10/11 11:29:01;;;;;;;7.60;2.35;;;;;;;17.80;68.14;101350.22;5012106;28;20033;-75
2022/10/11 11:32:08;;;;;;;8.60;2.63;;;;;;;17.83;69.68;101361.66;5036974;28;20097;-75